Time;durP1;ratioP1;P1;durP2;ratioP2;P2;SDS_P1;SDS_P2;PMS_P1;PMS_P2;Temp;Humidity;BMP_temperature;BMP_pressure;BME280_temperature;BME280_humidity;BME280_pressure;Samples;Min_cycle;Max_cycle;Signal;HPM_P1;HPM_P2
2022/10/10 00:01:34;;;;;;;3.90;2.55;;;13.60;85.40;;;;;;5055955;28;20033;-68
2022/10/10 00:04:01;;;;;;;4.50;2.38;;;13.60;85.40;;;;;;5055264;28;20025;-68
2022/10/10 00:06:27;;;;;;;7.55;2.55;;;13.50;85.50;;;;;;5055760;28;20058;-67
2022/10/10 00:08:53;;;;;;;6.35;2.60;;;13.50;85.70;;;;;;5055506;28;20132;-67
2022/10/10 00:11:21;;;;;;;9.50;2.70;;;13.50;85.90;;;;;;5055137;28;20029;-68
2022/10/10 00:13:47;;;;;;;7.43;2.53;;;13.50;86.10;;;;;;5055620;28;20127;-68
2022/10/10 00:16:14;;;;;;;9.20;3.35;;;13.40;86.20;;;;;;5055503;28;20037;-68
2022/10/10 00:18:41;;;;;;;6.05;2.50;;;13.40;86.40;;;;;;5055255;28;20043;-68
2022/10/10 00:21:07;;;;;;;6.07;2.60;;;13.40;86.40;;;;;;5055599;28;20040;-67
2022/10/10 00:23:33;;;;;;;7.68;2.58;;;13.30;86.40;;;;;;5054674;28;20033;-68
2022/10/10 00:25:59;;;;;;;8.07;3.40;;;13.30;86.60;;;;;;5054637;28;20108;-68
2022/10/10 00:28:25;;;;;;;5.15;2.22;;;13.30;86.70;;;;;;5055460;28;20041;-67
2022/10/10 00:30:51;;;;;;;5.18;2.65;;;13.30;87.00;;;;;;5053452;28;20037;-68
2022/10/10 00:33:17;;;;;;;4.88;2.65;;;13.30;87.00;;;;;;5055583;28;20353;-68
2022/10/10 00:35:43;;;;;;;9.50;2.53;;;13.20;87.10;;;;;;5055653;28;20040;-68
2022/10/10 00:38:09;;;;;;;3.55;2.60;;;13.20;87.20;;;;;;5054605;28;20115;-68
2022/10/10 00:40:42;;;;;;;5.78;2.47;;;13.20;87.20;;;;;;5055249;28;20033;-67
2022/10/10 00:43:09;;;;;;;;;;;13.10;87.30;;;;;;5055579;28;20025;-67
2022/10/10 00:45:34;;;;;;;5.40;2.65;;;13.10;87.50;;;;;;5054509;28;19908;-68
2022/10/10 00:48:12;;;;;;;8.43;2.75;;;13.10;87.60;;;;;;5055228;28;20491;-67
2022/10/10 00:50:43;;;;;;;5.07;2.22;;;13.10;87.80;;;;;;5054923;28;20494;-67
2022/10/10 00:53:11;;;;;;;5.10;2.53;;;13.00;87.80;;;;;;5054227;28;20036;-67
2022/10/10 00:55:37;;;;;;;3.78;2.45;;;13.00;87.80;;;;;;5054876;28;20480;-67
2022/10/10 00:58:05;;;;;;;4.35;2.22;;;12.90;87.80;;;;;;5054494;28;20041;-68
2022/10/10 01:00:30;;;;;;;4.07;2.50;;;12.90;88.10;;;;;;5054173;28;20036;-68
2022/10/10 01:02:56;;;;;;;4.30;2.10;;;12.90;88.00;;;;;;5055056;28;20029;-67
2022/10/10 01:05:22;;;;;;;5.70;2.35;;;12.90;88.20;;;;;;5054586;28;20036;-68
2022/10/10 01:07:48;;;;;;;7.97;2.60;;;13.00;88.20;;;;;;5053923;28;20442;-68
2022/10/10 01:10:16;;;;;;;5.72;2.45;;;12.90;88.10;;;;;;5054635;28;20040;-67
2022/10/10 01:12:57;;;;;;;6.10;2.50;;;12.90;88.20;;;;;;5053676;28;20041;-68
2022/10/10 01:15:46;;;;;;;4.00;2.20;;;12.90;88.20;;;;;;5054728;28;20417;-68
2022/10/10 01:18:29;;;;;;;6.50;2.80;;;12.90;88.30;;;;;;5054543;28;20025;-67
2022/10/10 01:21:11;;;;;;;9.60;3.42;;;12.80;88.40;;;;;;5053830;28;20056;-67
2022/10/10 01:23:50;;;;;;;7.10;3.00;;;12.70;89.00;;;;;;5054567;28;20025;-68
2022/10/10 01:26:50;;;;;;;4.97;2.58;;;12.80;88.40;;;;;;5054178;28;20041;-68
2022/10/10 01:29:37;;;;;;;10.27;2.53;;;12.70;88.50;;;;;;5054241;28;20036;-67
2022/10/10 01:32:10;;;;;;;5.05;2.65;;;12.70;88.50;;;;;;5054407;28;20037;-67
2022/10/10 01:34:51;;;;;;;4.63;2.53;;;12.70;88.50;;;;;;5053546;28;20116;-68
2022/10/10 01:37:20;;;;;;;5.63;2.58;;;12.60;88.50;;;;;;5053904;28;20117;-68
2022/10/10 01:39:59;;;;;;;5.65;2.70;;;12.70;88.60;;;;;;5054324;28;20029;-68
2022/10/10 01:42:41;;;;;;;5.75;2.97;;;12.70;88.60;;;;;;5053713;28;20040;-68
2022/10/10 01:45:08;;;;;;;6.20;2.80;;;12.60;88.50;;;;;;5054192;28;20064;-68
2022/10/10 01:47:33;;;;;;;6.72;2.83;;;12.60;88.70;;;;;;5053753;28;20056;-67
2022/10/10 01:50:05;;;;;;;4.85;2.70;;;12.60;88.70;;;;;;5053212;28;20451;-67
2022/10/10 01:52:49;;;;;;;5.82;3.30;;;12.60;88.70;;;;;;5053760;28;20037;-67
2022/10/10 01:55:32;;;;;;;6.20;3.00;;;12.60;88.70;;;;;;5053146;28;20442;-67
2022/10/10 01:58:00;;;;;;;5.65;2.67;;;12.60;88.60;;;;;;5053538;28;20056;-67
2022/10/10 02:00:26;;;;;;;5.10;2.75;;;12.60;88.50;;;;;;5053873;28;20041;-67
2022/10/10 02:03:10;;;;;;;4.53;2.40;;;12.50;88.50;;;;;;5052898;28;20086;-67
2022/10/10 02:05:49;;;;;;;7.82;3.05;;;12.60;88.60;;;;;;5053701;28;20036;-67
2022/10/10 02:08:39;;;;;;;7.75;3.38;;;12.50;88.70;;;;;;5053378;28;20041;-67
2022/10/10 02:11:08;;;;;;;10.20;3.42;;;12.50;88.70;;;;;;5053043;28;20131;-67
2022/10/10 02:13:47;;;;;;;9.80;3.53;;;12.50;88.70;;;;;;5053754;28;20039;-67
2022/10/10 02:16:18;;;;;;;7.20;3.17;;;12.40;88.70;;;;;;5052836;28;20075;-67
2022/10/10 02:18:46;;;;;;;7.18;3.75;;;12.40;88.80;;;;;;5053597;28;20075;-67
2022/10/10 02:21:13;;;;;;;6.63;3.15;;;12.30;88.80;;;;;;5053449;28;20025;-67
2022/10/10 02:23:43;;;;;;;8.85;3.00;;;12.30;88.90;;;;;;5052848;28;20377;-67
2022/10/10 02:26:12;;;;;;;11.57;3.17;;;12.30;88.90;;;;;;5053581;28;20033;-67
2022/10/10 02:28:49;;;;;;;6.13;3.03;;;12.30;89.00;;;;;;5053452;28;20040;-67
2022/10/10 02:31:23;;;;;;;10.35;3.17;;;12.30;89.00;;;;;;5052860;28;20116;-67
2022/10/10 02:33:58;;;;;;;8.55;3.05;;;12.30;89.10;;;;;;5053542;28;20021;-67
2022/10/10 02:36:25;;;;;;;11.35;3.00;;;12.30;89.20;;;;;;5053324;28;20060;-67
2022/10/10 02:38:52;;;;;;;6.82;2.95;;;12.30;89.20;;;;;;5052790;28;20048;-67
2022/10/10 02:41:20;;;;;;;8.38;2.95;;;12.30;89.20;;;;;;5053293;28;20029;-67
2022/10/10 02:43:46;;;;;;;8.88;3.15;;;12.20;89.30;;;;;;5052895;28;20033;-67
2022/10/10 02:46:13;;;;;;;5.43;2.78;;;12.20;89.20;;;;;;5052547;28;20614;-67
2022/10/10 02:48:39;;;;;;;8.80;3.20;;;12.20;89.30;;;;;;5055458;28;20036;-67
2022/10/10 02:51:06;;;;;;;6.38;3.20;;;12.30;89.40;;;;;;5056738;28;20032;-67
2022/10/10 02:53:33;;;;;;;6.30;3.00;;;12.20;89.40;;;;;;5057488;28;20031;-67
2022/10/10 02:55:58;;;;;;;9.95;2.95;;;12.20;89.40;;;;;;5057143;28;20044;-67
2022/10/10 02:58:24;;;;;;;4.68;2.85;;;12.20;89.50;;;;;;5056292;28;20451;-67
2022/10/10 03:00:50;;;;;;;6.20;3.20;;;12.20;89.50;;;;;;5057228;28;20487;-67
2022/10/10 03:03:15;;;;;;;5.93;2.60;;;12.20;89.70;;;;;;5057077;28;20029;-67
2022/10/10 03:05:41;;;;;;;5.85;2.92;;;12.20;89.60;;;;;;5056429;28;20090;-67
2022/10/10 03:08:06;;;;;;;7.97;2.72;;;12.20;89.60;;;;;;5056956;28;20025;-67
2022/10/10 03:10:32;;;;;;;7.15;3.00;;;12.20;89.80;;;;;;5056911;28;20044;-67
2022/10/10 03:12:58;;;;;;;4.68;2.92;;;12.20;89.90;;;;;;5056093;28;20025;-67
2022/10/10 03:15:23;;;;;;;9.45;3.10;;;12.10;89.80;;;;;;5056887;28;20037;-67
2022/10/10 03:17:49;;;;;;;5.13;2.90;;;12.10;89.90;;;;;;5056964;28;20070;-67
2022/10/10 03:20:15;;;;;;;7.70;3.03;;;12.10;90.00;;;;;;5056544;28;20491;-67
2022/10/10 03:22:40;;;;;;;5.57;2.97;;;12.10;89.90;;;;;;5057116;28;20054;-67
2022/10/10 03:25:06;;;;;;;5.00;1.92;;;12.10;90.00;;;;;;5056618;28;20033;-67
2022/10/10 03:27:32;;;;;;;7.07;2.83;;;12.10;90.00;;;;;;5055741;28;20376;-67
2022/10/10 03:29:57;;;;;;;6.75;2.85;;;12.10;90.00;;;;;;5056577;28;20044;-67
2022/10/10 03:32:24;;;;;;;6.78;3.03;;;12.10;90.00;;;;;;5056219;28;20037;-67
2022/10/10 03:34:49;;;;;;;4.80;2.80;;;12.00;90.00;;;;;;5056073;28;20426;-67
2022/10/10 03:37:15;;;;;;;4.50;2.63;;;12.10;90.00;;;;;;5056581;28;20028;-67
2022/10/10 03:39:40;;;;;;;6.32;3.08;;;12.10;90.00;;;;;;5056131;28;20036;-67
2022/10/10 03:42:06;;;;;;;8.75;3.28;;;12.10;90.00;;;;;;5055731;28;20033;-67
2022/10/10 03:44:32;;;;;;;6.53;3.30;;;12.10;90.00;;;;;;5056252;28;20052;-67
2022/10/10 03:46:57;;;;;;;6.78;3.25;;;12.10;90.00;;;;;;5056178;28;20025;-67
2022/10/10 03:49:23;;;;;;;5.70;2.88;;;12.10;90.00;;;;;;5055761;28;20357;-67
2022/10/10 03:51:48;;;;;;;7.20;3.00;;;12.00;90.00;;;;;;5056315;28;20104;-67
2022/10/10 03:54:14;;;;;;;4.28;2.60;;;12.00;90.10;;;;;;5055929;28;20059;-67
2022/10/10 03:56:40;;;;;;;8.43;2.90;;;12.00;90.10;;;;;;5055328;28;20558;-67
2022/10/10 03:59:05;;;;;;;7.22;2.72;;;12.00;90.10;;;;;;5055805;28;20037;-67
2022/10/10 04:01:32;;;;;;;5.35;2.65;;;12.00;90.10;;;;;;5055340;28;20035;-67
2022/10/10 04:03:57;;;;;;;5.80;3.30;;;11.90;90.10;;;;;;5056320;28;20078;-67
2022/10/10 04:06:23;;;;;;;7.22;2.88;;;11.90;90.10;;;;;;5055996;28;20024;-67
2022/10/10 04:08:49;;;;;;;7.55;3.00;;;11.90;90.10;;;;;;5054862;28;20083;-67
2022/10/10 04:11:14;;;;;;;14.63;3.05;;;11.90;90.10;;;;;;5055865;28;20033;-67
2022/10/10 04:13:40;;;;;;;8.15;2.90;;;11.90;90.10;;;;;;5055635;28;20041;-67
2022/10/10 04:16:05;;;;;;;5.57;2.70;;;11.90;90.10;;;;;;5055081;28;20072;-67
2022/10/10 04:18:31;;;;;;;5.35;3.10;;;11.90;90.10;;;;;;5055551;28;20037;-67
2022/10/10 04:21:00;;;;;;;8.10;3.13;;;11.90;90.00;;;;;;5055525;28;20021;-67
2022/10/10 04:23:25;;;;;;;4.88;2.80;;;11.90;90.00;;;;;;5054824;28;20372;-67
2022/10/10 04:25:52;;;;;;;4.63;2.88;;;11.80;90.00;;;;;;5055448;28;20033;-67
2022/10/10 04:28:18;;;;;;;6.40;2.75;;;11.80;89.90;;;;;;5055510;28;20124;-67
2022/10/10 04:30:44;;;;;;;6.30;2.90;;;11.80;89.90;;;;;;5054675;28;20119;-67
2022/10/10 04:33:10;;;;;;;4.40;3.50;;;11.80;89.90;;;;;;5055768;28;20060;-67
2022/10/10 04:35:36;;;;;;;5.30;2.90;;;11.80;89.90;;;;;;5055857;28;20041;-67
2022/10/10 04:38:02;;;;;;;5.07;3.05;;;11.80;89.90;;;;;;5054771;28;20032;-67
2022/10/10 04:40:28;;;;;;;7.78;3.13;;;11.80;90.00;;;;;;5055341;28;20116;-67
2022/10/10 04:42:54;;;;;;;6.47;3.03;;;11.80;89.90;;;;;;5055071;28;20452;-67
2022/10/10 04:45:19;;;;;;;8.65;2.95;;;11.80;89.90;;;;;;5054628;28;20036;-67
2022/10/10 04:47:45;;;;;;;7.95;2.95;;;11.80;89.90;;;;;;5055193;28;20099;-67
2022/10/10 04:50:11;;;;;;;6.75;2.92;;;11.80;90.00;;;;;;5054632;28;20403;-67
2022/10/10 04:52:36;;;;;;;6.05;3.58;;;11.80;90.00;;;;;;5054571;28;20029;-67
2022/10/10 04:55:02;;;;;;;6.68;3.55;;;11.80;90.00;;;;;;5054833;28;20597;-67
2022/10/10 04:57:28;;;;;;;8.05;2.90;;;11.70;90.00;;;;;;5054390;28;20132;-67
2022/10/10 04:59:54;;;;;;;7.20;3.88;;;11.70;90.00;;;;;;5054467;28;20128;-66
2022/10/10 05:02:19;;;;;;;4.53;3.00;;;11.70;90.10;;;;;;5054945;28;20021;-67
2022/10/10 05:04:45;;;;;;;10.30;2.80;;;11.70;90.10;;;;;;5053949;28;20117;-67
2022/10/10 05:07:10;;;;;;;12.27;3.65;;;11.60;90.10;;;;;;5054953;28;20029;-67
2022/10/10 05:09:36;;;;;;;6.22;3.35;;;11.60;90.10;;;;;;5054587;28;20043;-67
2022/10/10 05:12:02;;;;;;;4.47;3.13;;;11.60;90.20;;;;;;5053182;28;20021;-67
2022/10/10 05:14:27;;;;;;;6.97;3.35;;;11.60;90.20;;;;;;5054731;28;20364;-67
2022/10/10 05:16:53;;;;;;;5.07;2.70;;;11.60;90.20;;;;;;5054866;28;20460;-67
2022/10/10 05:19:19;;;;;;;7.45;3.15;;;11.60;90.20;;;;;;5053876;28;20098;-67
2022/10/10 05:21:44;;;;;;;5.68;3.10;;;11.60;90.20;;;;;;5054387;28;20017;-67
2022/10/10 05:24:10;;;;;;;7.10;2.90;;;11.60;90.20;;;;;;5054427;28;20476;-67
2022/10/10 05:26:35;;;;;;;7.30;3.40;;;11.50;90.10;;;;;;5053724;28;20448;-67
2022/10/10 05:29:01;;;;;;;10.75;3.10;;;11.50;90.10;;;;;;5054146;28;20051;-67
2022/10/10 05:31:27;;;;;;;6.20;3.17;;;11.50;90.10;;;;;;5054348;28;20094;-67
2022/10/10 05:33:54;;;;;;;6.55;3.42;;;11.50;90.40;;;;;;5053405;28;20112;-67
2022/10/10 05:36:19;;;;;;;8.95;3.45;;;11.50;90.20;;;;;;5054032;28;20036;-67
2022/10/10 05:38:45;;;;;;;4.32;2.95;;;11.50;90.10;;;;;;5053908;28;20033;-67
2022/10/10 05:41:11;;;;;;;8.43;3.13;;;11.40;90.10;;;;;;5053503;28;20048;-66
2022/10/10 05:43:37;;;;;;;9.35;3.58;;;11.40;90.10;;;;;;5054155;28;20377;-67
2022/10/10 05:46:03;;;;;;;7.50;3.42;;;11.50;90.20;;;;;;5053710;28;20044;-67
2022/10/10 05:48:29;;;;;;;7.13;3.22;;;11.40;90.10;;;;;;5053386;28;20103;-67
2022/10/10 05:50:56;;;;;;;6.78;3.63;;;11.40;90.10;;;;;;5053945;28;20373;-66
2022/10/10 05:53:24;;;;;;;13.80;3.47;;;11.40;90.10;;;;;;5053703;28;20025;-67
2022/10/10 05:55:50;;;;;;;6.05;3.45;;;11.40;90.10;;;;;;5053087;28;20056;-67
2022/10/10 05:58:15;;;;;;;9.18;3.35;;;11.40;90.10;;;;;;5053705;28;20053;-67
2022/10/10 06:00:43;;;;;;;6.47;3.50;;;11.40;90.00;;;;;;5053609;28;20484;-67
2022/10/10 06:03:12;;;;;;;5.55;3.40;;;11.30;89.90;;;;;;5053331;28;20025;-67
2022/10/10 06:05:39;;;;;;;7.22;3.60;;;11.30;89.90;;;;;;5053624;28;20036;-67
2022/10/10 06:08:05;;;;;;;4.05;2.25;;;11.30;89.90;;;;;;5052805;28;20025;-66
2022/10/10 06:10:36;;;;;;;7.53;3.03;;;11.30;89.90;;;;;;5053470;28;20076;-66
2022/10/10 06:13:02;;;;;;;9.35;4.15;;;11.30;89.90;;;;;;5053455;28;20037;-67
2022/10/10 06:15:28;;;;;;;12.45;4.45;;;11.30;89.90;;;;;;5052771;28;20033;-67
2022/10/10 06:17:53;;;;;;;9.70;4.25;;;11.20;89.90;;;;;;5053720;28;20037;-67
2022/10/10 06:20:19;;;;;;;8.15;3.42;;;11.20;90.00;;;;;;5053629;28;20032;-67
2022/10/10 06:22:44;;;;;;;7.30;3.75;;;11.20;90.00;;;;;;5051746;28;20379;-66
2022/10/10 06:25:10;;;;;;;6.40;3.85;;;11.20;89.90;;;;;;5053420;28;20115;-67
2022/10/10 06:27:36;;;;;;;7.28;3.97;;;11.20;89.90;;;;;;5053482;28;20041;-67
2022/10/10 06:30:02;;;;;;;11.65;4.15;;;11.20;89.90;;;;;;5052806;28;20052;-67
2022/10/10 06:32:28;;;;;;;9.30;3.72;;;11.20;89.80;;;;;;5053263;28;20040;-67
2022/10/10 06:34:54;;;;;;;8.63;3.83;;;11.20;89.80;;;;;;5053249;28;20033;-67
2022/10/10 06:37:19;;;;;;;5.85;2.55;;;11.20;89.80;;;;;;5052765;28;20052;-67
2022/10/10 06:39:45;;;;;;;9.75;3.42;;;11.20;89.70;;;;;;5053454;28;20483;-67
2022/10/10 06:42:10;;;;;;;8.82;4.18;;;11.20;89.70;;;;;;5053174;28;20480;-67
2022/10/10 06:44:36;;;;;;;4.38;2.85;;;11.20;89.70;;;;;;5052676;28;20523;-67
2022/10/10 06:47:02;;;;;;;8.00;3.45;;;11.20;89.50;;;;;;5053529;28;20087;-67
2022/10/10 06:49:28;;;;;;;5.90;3.13;;;11.20;89.60;;;;;;5052992;28;20551;-68
2022/10/10 06:51:54;;;;;;;10.07;3.72;;;11.10;89.50;;;;;;5052548;28;20039;-67
2022/10/10 06:54:19;;;;;;;3.47;1.77;;;11.20;89.70;;;;;;5053126;28;20029;-67
2022/10/10 06:56:45;;;;;;;4.72;2.40;;;11.10;89.50;;;;;;5052820;28;20074;-67
2022/10/10 06:59:11;;;;;;;1.88;1.60;;;11.10;89.50;;;;;;5052550;28;20037;-67
2022/10/10 07:01:37;;;;;;;2.40;0.95;;;11.10;89.50;;;;;;5053309;28;20116;-67
2022/10/10 07:04:02;;;;;;;5.70;3.03;;;11.20;89.50;;;;;;5052851;28;20033;-67
2022/10/10 07:06:28;;;;;;;6.95;3.85;;;11.20;89.50;;;;;;5052362;28;20384;-67
2022/10/10 07:08:54;;;;;;;8.20;3.65;;;11.20;89.70;;;;;;5052869;28;20033;-67
2022/10/10 07:11:21;;;;;;;7.22;3.40;;;11.10;89.70;;;;;;5052603;28;20040;-67
2022/10/10 07:13:48;;;;;;;10.25;3.90;;;11.20;89.90;;;;;;5053208;28;20033;-67
2022/10/10 07:16:13;;;;;;;3.05;2.03;;;11.20;89.90;;;;;;5053041;28;20041;-67
2022/10/10 07:18:39;;;;;;;11.15;3.67;;;11.20;89.70;;;;;;5052117;28;20617;-67
2022/10/10 07:21:05;;;;;;;6.38;3.03;;;11.30;89.80;;;;;;5052757;28;20138;-67
2022/10/10 07:23:31;;;;;;;9.68;3.92;;;11.20;89.80;;;;;;5053160;28;20387;-67
2022/10/10 07:26:04;;;;;;;10.48;3.70;;;11.20;89.90;;;;;;5052298;28;20028;-67
2022/10/10 07:28:30;;;;;;;5.07;2.95;;;11.30;90.00;;;;;;5053056;28;20029;-67
2022/10/10 07:31:05;;;;;;;7.40;4.05;;;11.30;89.90;;;;;;5052428;28;20408;-67
2022/10/10 07:33:36;;;;;;;10.38;3.60;;;11.30;90.10;;;;;;5052582;28;20025;-67
2022/10/10 07:36:01;;;;;;;11.88;3.13;;;11.30;90.00;;;;;;5056325;28;20472;-67
2022/10/10 07:38:27;;;;;;;12.35;3.90;;;11.30;89.90;;;;;;5056254;28;20111;-67
2022/10/10 07:40:53;;;;;;;4.88;2.45;;;11.40;90.00;;;;;;5055957;28;20090;-67
2022/10/10 07:43:19;;;;;;;5.88;3.25;;;11.30;89.90;;;;;;5056235;28;20086;-67
2022/10/10 07:45:44;;;;;;;24.60;3.85;;;11.40;90.00;;;;;;5056014;28;20036;-67
2022/10/10 07:48:10;;;;;;;5.40;3.53;;;11.40;90.00;;;;;;5055667;28;20025;-67
2022/10/10 07:50:40;;;;;;;6.03;3.28;;;11.40;90.00;;;;;;5056446;28;20055;-67
2022/10/10 07:53:06;;;;;;;4.97;2.58;;;11.40;90.10;;;;;;5056434;28;20060;-67
2022/10/10 07:55:33;;;;;;;6.65;3.78;;;11.40;90.10;;;;;;5056106;28;20040;-67
2022/10/10 07:58:01;;;;;;;6.95;4.28;;;11.40;90.10;;;;;;5055870;28;20048;-67
2022/10/10 08:00:27;;;;;;;10.35;3.70;;;11.40;90.10;;;;;;5055718;28;20523;-67
2022/10/10 08:02:53;;;;;;;12.77;4.82;;;11.40;90.20;;;;;;5055584;28;20070;-67
2022/10/10 08:05:19;;;;;;;7.47;2.78;;;11.40;90.40;;;;;;5056028;28;20484;-67
2022/10/10 08:07:44;;;;;;;5.68;3.17;;;11.50;90.30;;;;;;5055259;28;20086;-67
2022/10/10 08:10:11;;;;;;;7.32;3.50;;;11.40;90.30;;;;;;5055742;28;20129;-67
2022/10/10 08:12:36;;;;;;;2.25;1.48;;;11.50;90.30;;;;;;5055637;28;20036;-67
2022/10/10 08:15:03;;;;;;;8.80;4.07;;;11.50;90.30;;;;;;5055068;28;20028;-67
2022/10/10 08:17:29;;;;;;;8.55;3.75;;;11.50;90.40;;;;;;5055517;28;20041;-67
2022/10/10 08:19:54;;;;;;;5.53;3.50;;;11.50;90.50;;;;;;5055510;28;20033;-67
2022/10/10 08:22:20;;;;;;;6.88;4.03;;;11.50;90.50;;;;;;5055403;28;20028;-67
2022/10/10 08:24:46;;;;;;;10.55;3.15;;;11.50;90.50;;;;;;5055578;28;20040;-67
2022/10/10 08:27:13;;;;;;;10.52;4.20;;;11.50;90.50;;;;;;5055456;28;20080;-67
2022/10/10 08:29:39;;;;;;;9.13;3.75;;;11.60;90.60;;;;;;5054752;28;20055;-67
2022/10/10 08:32:04;;;;;;;14.73;4.97;;;11.60;90.60;;;;;;5055304;28;20021;-67
2022/10/10 08:34:30;;;;;;;10.25;3.58;;;11.60;90.70;;;;;;5055658;28;20033;-66
2022/10/10 08:36:58;;;;;;;12.73;4.20;;;11.70;90.70;;;;;;5055369;28;20025;-66
2022/10/10 08:39:24;;;;;;;14.32;3.00;;;11.70;90.80;;;;;;5055482;28;20044;-67
2022/10/10 08:41:59;;;;;;;9.50;4.30;;;11.80;90.70;;;;;;5055207;28;20025;-67
2022/10/10 08:44:40;;;;;;;6.45;3.72;;;11.80;90.90;;;;;;5054817;28;20119;-65
2022/10/10 08:47:08;;;;;;;2.72;1.30;;;11.80;90.90;;;;;;5055096;28;20039;-67
2022/10/10 08:49:46;;;;;;;3.35;2.15;;;11.80;90.70;;;;;;5054722;28;20087;-66
2022/10/10 08:52:28;;;;;;;5.05;2.70;;;11.80;90.90;;;;;;5054894;28;20126;-67
2022/10/10 08:54:55;;;;;;;5.28;2.67;;;11.80;91.10;;;;;;5055053;28;20036;-67
2022/10/10 08:57:32;;;;;;;3.78;1.92;;;11.90;91.40;;;;;;5055546;28;20033;-67
2022/10/10 09:00:11;;;;;;;2.15;1.73;;;11.90;91.60;;;;;;5055591;28;20043;-69
2022/10/10 09:02:40;;;;;;;4.18;2.22;;;11.90;91.80;;;;;;5054868;28;20029;-70
2022/10/10 09:05:14;;;;;;;6.10;2.22;;;11.90;91.90;;;;;;5055036;28;20041;-69
2022/10/10 09:07:52;;;;;;;5.57;3.17;;;11.90;92.10;;;;;;5056725;28;20029;-68
2022/10/10 09:10:30;;;;;;;9.70;4.20;;;12.00;92.40;;;;;;5055748;28;20075;-67
2022/10/10 09:13:13;;;;;;;4.45;2.28;;;11.90;92.60;;;;;;5054120;28;20033;-68
2022/10/10 09:15:56;;;;;;;4.22;2.78;;;12.00;92.50;;;;;;5054565;28;20037;-68
2022/10/10 09:18:30;;;;;;;3.78;2.50;;;12.00;92.50;;;;;;5053947;28;20040;-68
2022/10/10 09:21:11;;;;;;;8.80;3.15;;;12.10;92.80;;;;;;5054779;28;20116;-67
2022/10/10 09:23:47;;;;;;;4.60;3.33;;;12.10;93.00;;;;;;5054214;28;20467;-69
2022/10/10 09:26:17;;;;;;;2.92;2.30;;;12.20;93.00;;;;;;5053741;28;20104;-66
2022/10/10 09:28:58;;;;;;;2.75;2.00;;;12.20;93.20;;;;;;5055354;28;20060;-65
2022/10/10 09:31:50;;;;;;;3.97;2.92;;;12.20;93.40;;;;;;5054138;28;20041;-65
2022/10/10 09:34:21;;;;;;;3.60;2.33;;;12.30;93.60;;;;;;5050904;28;20045;-65
2022/10/10 09:36:48;;;;;;;2.25;1.73;;;12.30;93.60;;;;;;5054123;28;20041;-66
2022/10/10 09:39:35;;;;;;;9.02;3.30;;;12.30;93.80;;;;;;5053371;28;20464;-78
2022/10/10 09:42:04;;;;;;;7.68;3.88;;;12.40;94.00;;;;;;5054061;28;20032;-75
2022/10/10 09:44:31;;;;;;;8.70;3.88;;;12.40;94.00;;;;;;5053832;28;20087;-81
2022/10/10 09:46:58;;;;;;;12.25;5.18;;;12.50;94.00;;;;;;5053634;28;20037;-75
2022/10/10 09:49:24;;;;;;;3.50;1.83;;;12.50;94.00;;;;;;5054090;28;20444;-76
2022/10/10 09:51:50;;;;;;;5.55;2.10;;;12.60;93.90;;;;;;5053702;28;20059;-73
2022/10/10 09:54:18;;;;;;;3.50;2.47;;;12.60;94.00;;;;;;5053591;28;20484;-75
2022/10/10 09:56:57;;;;;;;6.78;4.03;;;12.70;94.20;;;;;;5054347;28;20039;-74
2022/10/10 09:59:37;;;;;;;5.78;3.47;;;12.80;94.50;;;;;;5053610;28;20039;-73
2022/10/10 10:02:16;;;;;;;6.63;3.38;;;12.80;94.40;;;;;;5053058;28;20547;-74
2022/10/10 10:04:42;;;;;;;4.05;2.15;;;12.80;94.30;;;;;;5053675;28;20391;-74
2022/10/10 10:07:30;;;;;;;8.07;3.20;;;12.80;94.40;;;;;;5053264;28;20040;-73
2022/10/10 10:10:01;;;;;;;2.47;1.73;;;12.90;94.60;;;;;;5053483;28;20074;-73
2022/10/10 10:12:30;;;;;;;6.53;2.42;;;13.00;94.80;;;;;;5053286;28;20028;-66
2022/10/10 10:15:03;;;;;;;2.33;1.48;;;13.00;94.80;;;;;;5053498;28;20419;-67
2022/10/10 10:17:29;;;;;;;7.40;2.30;;;13.10;94.80;;;;;;5053334;28;20063;-67
2022/10/10 10:19:55;;;;;;;3.72;2.03;;;13.20;94.90;;;;;;5054115;28;20075;-67
2022/10/10 10:22:25;;;;;;;5.65;2.60;;;13.20;95.10;;;;;;5052862;28;20395;-67
2022/10/10 10:24:50;;;;;;;4.97;2.45;;;13.20;95.10;;;;;;5053611;28;20029;-67
2022/10/10 10:27:21;;;;;;;6.80;2.97;;;13.30;95.30;;;;;;5053398;28;20052;-67
2022/10/10 10:29:57;;;;;;;8.50;3.78;;;13.30;95.20;;;;;;5052667;28;20098;-67
2022/10/10 10:32:38;;;;;;;2.55;2.03;;;13.40;95.30;;;;;;5053361;28;20025;-67
2022/10/10 10:35:25;;;;;;;8.45;3.03;;;13.40;95.30;;;;;;5053119;28;20037;-67
2022/10/10 10:38:03;;;;;;;3.58;2.75;;;13.50;95.40;;;;;;5053248;28;20033;-67
2022/10/10 10:40:36;;;;;;;6.57;3.40;;;13.50;95.60;;;;;;5053123;28;20476;-67
2022/10/10 10:43:19;;;;;;;9.18;2.90;;;13.60;95.70;;;;;;5052736;28;20044;-67
2022/10/10 10:46:03;;;;;;;4.78;1.35;;;13.70;95.70;;;;;;5053452;28;20029;-67
2022/10/10 10:48:51;;;;;;;14.38;4.13;;;13.80;95.70;;;;;;5053037;28;20033;-67
2022/10/10 10:51:41;;;;;;;4.28;2.63;;;13.80;95.70;;;;;;5052615;28;20040;-67
2022/10/10 10:54:26;;;;;;;6.10;3.85;;;13.80;95.80;;;;;;5053297;28;20079;-67
2022/10/10 10:57:23;;;;;;;3.45;2.17;;;13.90;95.90;;;;;;5052636;28;20033;-67
2022/10/10 11:00:08;;;;;;;4.30;2.60;;;14.00;95.80;;;;;;5051322;28;20049;-67
2022/10/10 11:03:00;;;;;;;3.75;1.73;;;14.00;95.90;;;;;;5052853;28;20036;-68
2022/10/10 11:05:40;;;;;;;2.58;1.63;;;14.10;95.90;;;;;;5052481;28;20051;-67
2022/10/10 11:08:16;;;;;;;8.38;2.65;;;14.20;96.00;;;;;;5053084;28;20044;-67
2022/10/10 11:11:04;;;;;;;8.13;2.63;;;14.30;96.00;;;;;;5056443;28;20045;-68
2022/10/10 11:13:41;;;;;;;9.90;3.67;;;14.30;96.00;;;;;;5056934;28;20095;-67
2022/10/10 11:16:32;;;;;;;6.57;2.35;;;14.40;96.00;;;;;;5056715;28;20052;-67
2022/10/10 11:19:04;;;;;;;4.18;2.85;;;14.50;96.00;;;;;;5056181;28;20505;-67
2022/10/10 11:21:33;;;;;;;5.38;2.97;;;14.50;96.10;;;;;;5056783;28;20040;-67
2022/10/10 11:24:05;;;;;;;6.30;3.65;;;14.60;96.10;;;;;;5056928;28;20035;-68
2022/10/10 11:26:43;;;;;;;6.22;3.30;;;14.60;96.40;;;;;;5056315;28;20053;-69
2022/10/10 11:29:14;;;;;;;4.78;2.63;;;14.60;96.30;;;;;;5056761;28;20376;-68
2022/10/10 11:31:56;;;;;;;4.57;2.95;;;14.70;96.40;;;;;;5055955;28;20041;-67
2022/10/10 11:34:29;;;;;;;5.85;3.60;;;14.80;96.70;;;;;;5056646;28;20032;-74
2022/10/10 11:37:01;;;;;;;5.85;3.33;;;14.80;96.70;;;;;;5056262;28;20031;-75
2022/10/10 11:39:56;;;;;;;4.20;2.45;;;14.80;96.80;;;;;;5056365;28;20450;-74
2022/10/10 11:42:47;;;;;;;6.93;2.72;;;14.80;96.90;;;;;;5054435;28;20439;-75
2022/10/10 11:45:20;;;;;;;7.55;2.28;;;14.90;96.80;;;;;;5057369;28;20025;-74
2022/10/10 11:48:12;;;;;;;5.32;2.20;;;14.90;96.90;;;;;;5056673;28;20051;-75
2022/10/10 11:50:42;;;;;;;6.15;2.97;;;15.00;96.90;;;;;;5057226;28;20079;-74
2022/10/10 11:53:25;;;;;;;4.32;2.72;;;15.00;96.90;;;;;;5056939;28;20029;-75
2022/10/10 11:56:06;;;;;;;3.00;2.08;;;15.00;97.00;;;;;;5056923;28;20057;-76
2022/10/10 11:58:39;;;;;;;7.85;3.03;;;15.00;96.90;;;;;;5056920;28;20076;-77
2022/10/10 12:01:14;;;;;;;5.53;2.90;;;15.10;96.90;;;;;;5057046;28;20053;-75
2022/10/10 12:03:40;;;;;;;8.23;2.50;;;15.10;96.90;;;;;;5057145;28;20045;-69
2022/10/10 12:06:19;;;;;;;4.82;1.70;;;15.10;96.90;;;;;;5056905;28;20039;-68
2022/10/10 12:09:00;;;;;;;6.75;3.38;;;15.20;96.90;;;;;;5055562;28;20116;-68
2022/10/10 12:11:46;;;;;;;9.65;3.38;;;15.20;96.80;;;;;;5058418;28;20045;-67
2022/10/10 12:14:18;;;;;;;4.85;2.50;;;15.30;96.80;;;;;;5057195;28;20151;-67
2022/10/10 12:16:44;;;;;;;15.15;3.47;;;15.30;96.80;;;;;;5057591;28;20033;-68
2022/10/10 12:19:28;;;;;;;2.97;1.63;;;15.30;96.80;;;;;;5057081;28;20085;-68
2022/10/10 12:21:56;;;;;;;9.25;3.75;;;15.30;96.70;;;;;;5054174;28;20095;-68
2022/10/10 12:24:23;;;;;;;6.32;3.28;;;15.30;96.70;;;;;;5057345;28;20029;-67
2022/10/10 12:26:52;;;;;;;4.80;2.83;;;15.40;96.80;;;;;;5056706;28;20498;-68
2022/10/10 12:29:45;;;;;;;6.90;3.50;;;15.40;96.90;;;;;;5056163;28;20071;-68
2022/10/10 12:32:14;;;;;;;5.05;3.28;;;15.50;96.90;;;;;;5057239;28;20036;-68
2022/10/10 12:34:42;;;;;;;3.33;1.92;;;15.50;96.90;;;;;;5055555;28;20071;-68
2022/10/10 12:37:29;;;;;;;4.03;2.67;;;15.50;96.90;;;;;;5057276;28;20025;-67
2022/10/10 12:40:06;;;;;;;7.30;3.45;;;15.50;97.00;;;;;;5055134;28;20039;-68
2022/10/10 12:42:35;;;;;;;8.45;3.47;;;15.50;97.00;;;;;;5054877;28;20025;-68
2022/10/10 12:45:01;;;;;;;4.50;2.78;;;15.50;97.10;;;;;;5055056;28;20463;-67
2022/10/10 12:47:40;;;;;;;12.95;5.03;;;15.50;97.00;;;;;;5055085;28;20060;-67
2022/10/10 12:50:24;;;;;;;8.30;3.65;;;15.60;97.10;;;;;;5054546;28;20095;-67
2022/10/10 12:53:00;;;;;;;;;;;15.60;97.00;;;;;;5055714;28;20036;-67
2022/10/10 12:55:29;;;;;;;5.28;2.70;;;15.70;96.90;;;;;;5055226;28;19959;-67
2022/10/10 12:57:59;;;;;;;7.95;2.38;;;15.70;96.90;;;;;;5054366;28;20135;-68
2022/10/10 13:00:46;;;;;;;5.13;2.13;;;15.70;96.90;;;;;;5055060;28;20083;-67
2022/10/10 13:03:26;;;;;;;8.52;1.70;;;15.70;96.90;;;;;;5054500;28;20418;-67